sensor_id;sensor_type;location;lat;lon;timestamp;pressure;altitude;pressure_sealevel;temperature;humidity
3250;BME280;1637;42.020;23.992;2023-06-19T00:01:08;92910.78;;;14.08;100.00
3250;BME280;1637;42.020;23.992;2023-06-19T00:03:35;92907.13;;;13.98;100.00
3250;BME280;1637;42.020;23.992;2023-06-19T00:06:02;92901.88;;;14.11;100.00
3250;BME280;1637;42.020;23.992;2023-06-19T00:08:29;92901.59;;;14.05;100.00
3250;BME280;1637;42.020;23.992;2023-06-19T00:10:57;92902.84;;;14.01;100.00
3250;BME280;1637;42.020;23.992;2023-06-19T00:13:24;92895.59;;;13.82;100.00
3250;BME280;1637;42.020;23.992;2023-06-19T00:15:51;92901.28;;;13.67;100.00
3250;BME280;1637;42.020;23.992;2023-06-19T00:18:18;92901.22;;;13.51;100.00
3250;BME280;1637;42.020;23.992;2023-06-19T00:20:45;92911.84;;;13.58;100.00
3250;BME280;1637;42.020;23.992;2023-06-19T00:23:12;92902.22;;;13.41;100.00
3250;BME280;1637;42.020;23.992;2023-06-19T00:25:42;92905.03;;;13.34;100.00
3250;BME280;1637;42.020;23.992;2023-06-19T00:28:11;92899.88;;;13.43;100.00
3250;BME280;1637;42.020;23.992;2023-06-19T00:30:39;92904.28;;;13.33;100.00
3250;BME280;1637;42.020;23.992;2023-06-19T00:33:07;92914.63;;;13.15;100.00
3250;BME280;1637;42.020;23.992;2023-06-19T00:35:34;92902.72;;;13.13;100.00
3250;BME280;1637;42.020;23.992;2023-06-19T00:38:00;92897.44;;;13.09;100.00
3250;BME280;1637;42.020;23.992;2023-06-19T00:40:28;92896.56;;;13.16;100.00
3250;BME280;1637;42.020;23.992;2023-06-19T00:42:56;92905.78;;;13.15;100.00
3250;BME280;1637;42.020;23.992;2023-06-19T00:45:25;92886.75;;;13.05;100.00
3250;BME280;1637;42.020;23.992;2023-06-19T00:47:52;92898.19;;;13.09;100.00
3250;BME280;1637;42.020;23.992;2023-06-19T00:50:20;92902.72;;;13.13;100.00
3250;BME280;1637;42.020;23.992;2023-06-19T00:52:47;92897.88;;;13.27;100.00
3250;BME280;1637;42.020;23.992;2023-06-19T00:55:15;92903.25;;;13.47;100.00
3250;BME280;1637;42.020;23.992;2023-06-19T00:57:42;92907.69;;;12.94;100.00
3250;BME280;1637;42.020;23.992;2023-06-19T01:00:11;92914.66;;;13.12;100.00
3250;BME280;1637;42.020;23.992;2023-06-19T01:02:39;92932.88;;;13.04;100.00
3250;BME280;1637;42.020;23.992;2023-06-19T01:05:06;92907.38;;;13.32;100.00
3250;BME280;1637;42.020;23.992;2023-06-19T01:07:43;92906.38;;;13.26;100.00
3250;BME280;1637;42.020;23.992;2023-06-19T01:10:13;92908.72;;;13.24;100.00
3250;BME280;1637;42.020;23.992;2023-06-19T01:13:00;92900.53;;;13.07;100.00
3250;BME280;1637;42.020;23.992;2023-06-19T01:15:28;92907.34;;;13.12;100.00
3250;BME280;1637;42.020;23.992;2023-06-19T01:17:58;92914.78;;;13.28;100.00
3250;BME280;1637;42.020;23.992;2023-06-19T01:20:26;92911.56;;;13.13;100.00
3250;BME280;1637;42.020;23.992;2023-06-19T01:22:55;92918.44;;;12.94;100.00
3250;BME280;1637;42.020;23.992;2023-06-19T01:25:23;92918.31;;;13.01;100.00
3250;BME280;1637;42.020;23.992;2023-06-19T01:27:50;92930.16;;;12.84;100.00
3250;BME280;1637;42.020;23.992;2023-06-19T01:30:17;92910.03;;;12.92;100.00
3250;BME280;1637;42.020;23.992;2023-06-19T01:32:49;92911.69;;;12.86;100.00
3250;BME280;1637;42.020;23.992;2023-06-19T01:35:23;92916.91;;;12.93;100.00
3250;BME280;1637;42.020;23.992;2023-06-19T01:37:52;92918.41;;;12.74;100.00
3250;BME280;1637;42.020;23.992;2023-06-19T01:40:22;92925.91;;;12.87;100.00
3250;BME280;1637;42.020;23.992;2023-06-19T01:42:52;92916.84;;;12.54;100.00
3250;BME280;1637;42.020;23.992;2023-06-19T01:45:20;92919.72;;;12.66;100.00
3250;BME280;1637;42.020;23.992;2023-06-19T01:47:47;92915.31;;;12.76;100.00
3250;BME280;1637;42.020;23.992;2023-06-19T01:50:14;92910.41;;;12.71;100.00
3250;BME280;1637;42.020;23.992;2023-06-19T01:52:41;92907.91;;;12.60;100.00
3250;BME280;1637;42.020;23.992;2023-06-19T01:55:08;92908.00;;;12.77;100.00
3250;BME280;1637;42.020;23.992;2023-06-19T01:57:37;92901.13;;;12.76;100.00
3250;BME280;1637;42.020;23.992;2023-06-19T02:00:05;92899.03;;;12.63;100.00
3250;BME280;1637;42.020;23.992;2023-06-19T02:02:33;92906.56;;;12.72;100.00
3250;BME280;1637;42.020;23.992;2023-06-19T02:05:00;92911.69;;;12.86;100.00
3250;BME280;1637;42.020;23.992;2023-06-19T02:07:26;92907.13;;;12.83;100.00
3250;BME280;1637;42.020;23.992;2023-06-19T02:09:53;92907.91;;;12.84;100.00
3250;BME280;1637;42.020;23.992;2023-06-19T02:12:20;92907.91;;;12.84;100.00
3250;BME280;1637;42.020;23.992;2023-06-19T02:14:48;92905.06;;;12.91;100.00
3250;BME280;1637;42.020;23.992;2023-06-19T02:17:15;92919.97;;;12.95;100.00
3250;BME280;1637;42.020;23.992;2023-06-19T02:19:42;92913.34;;;12.80;100.00
3250;BME280;1637;42.020;23.992;2023-06-19T02:22:09;92910.69;;;12.77;100.00
3250;BME280;1637;42.020;23.992;2023-06-19T02:24:35;92905.19;;;12.64;100.00
3250;BME280;1637;42.020;23.992;2023-06-19T02:27:05;92911.13;;;12.52;100.00
3250;BME280;1637;42.020;23.992;2023-06-19T02:29:32;92912.66;;;12.53;100.00
3250;BME280;1637;42.020;23.992;2023-06-19T02:32:01;92909.66;;;12.47;100.00
3250;BME280;1637;42.020;23.992;2023-06-19T02:34:28;92913.50;;;12.69;100.00
3250;BME280;1637;42.020;23.992;2023-06-19T02:36:54;92918.41;;;12.74;100.00
3250;BME280;1637;42.020;23.992;2023-06-19T02:39:21;92925.81;;;12.90;100.00
3250;BME280;1637;42.020;23.992;2023-06-19T02:41:48;92924.66;;;13.11;100.00
3250;BME280;1637;42.020;23.992;2023-06-19T02:44:15;92922.88;;;13.04;100.00
3250;BME280;1637;42.020;23.992;2023-06-19T02:46:42;92930.44;;;13.09;100.00
3250;BME280;1637;42.020;23.992;2023-06-19T02:49:10;92926.44;;;12.98;100.00
3250;BME280;1637;42.020;23.992;2023-06-19T02:51:37;92920.47;;;12.67;100.00
3250;BME280;1637;42.020;23.992;2023-06-19T02:54:03;92915.97;;;12.60;100.00
3250;BME280;1637;42.020;23.992;2023-06-19T02:56:31;92928.75;;;12.76;100.00
3250;BME280;1637;42.020;23.992;2023-06-19T02:58:58;92932.63;;;12.52;100.00
3250;BME280;1637;42.020;23.992;2023-06-19T03:01:25;92926.31;;;12.62;100.00
3250;BME280;1637;42.020;23.992;2023-06-19T03:03:52;92928.41;;;12.51;100.00
3250;BME280;1637;42.020;23.992;2023-06-19T03:06:20;92928.41;;;12.51;100.00
3250;BME280;1637;42.020;23.992;2023-06-19T03:08:47;92942.09;;;12.83;100.00
3250;BME280;1637;42.020;23.992;2023-06-19T03:11:14;92933.06;;;12.93;100.00
3250;BME280;1637;42.020;23.992;2023-06-19T03:13:45;92914.38;;;12.86;100.00
3250;BME280;1637;42.020;23.992;2023-06-19T03:16:12;92929.00;;;13.28;100.00
3250;BME280;1637;42.020;23.992;2023-06-19T03:18:39;92932.19;;;13.95;100.00
3250;BME280;1637;42.020;23.992;2023-06-19T03:21:06;92939.38;;;14.02;100.00
3250;BME280;1637;42.020;23.992;2023-06-19T03:23:34;92938.47;;;13.72;100.00
3250;BME280;1637;42.020;23.992;2023-06-19T03:26:01;92938.47;;;13.72;100.00
3250;BME280;1637;42.020;23.992;2023-06-19T03:28:28;92938.09;;;13.90;100.00
3250;BME280;1637;42.020;23.992;2023-06-19T03:30:55;92946.13;;;14.10;100.00
3250;BME280;1637;42.020;23.992;2023-06-19T03:33:22;92949.09;;;14.32;100.00
3250;BME280;1637;42.020;23.992;2023-06-19T03:35:48;92949.59;;;14.27;100.00
3250;BME280;1637;42.020;23.992;2023-06-19T03:38:15;92951.13;;;14.28;100.00
3250;BME280;1637;42.020;23.992;2023-06-19T03:40:43;92956.38;;;13.99;100.00
3250;BME280;1637;42.020;23.992;2023-06-19T03:43:10;92963.59;;;13.86;100.00
3250;BME280;1637;42.020;23.992;2023-06-19T03:45:37;92956.47;;;13.75;100.00
3250;BME280;1637;42.020;23.992;2023-06-19T03:48:04;92956.69;;;13.85;100.00
3250;BME280;1637;42.020;23.992;2023-06-19T03:50:31;92950.84;;;14.06;100.00
3250;BME280;1637;42.020;23.992;2023-06-19T03:52:58;92956.09;;;14.29;100.00
3250;BME280;1637;42.020;23.992;2023-06-19T03:55:24;92940.56;;;14.17;100.00
3250;BME280;1637;42.020;23.992;2023-06-19T03:57:53;92959.06;;;14.84;100.00
3250;BME280;1637;42.020;23.992;2023-06-19T04:00:19;92950.97;;;15.29;97.34
3250;BME280;1637;42.020;23.992;2023-06-19T04:02:47;92952.31;;;15.50;95.05
3250;BME280;1637;42.020;23.992;2023-06-19T04:05:13;92944.38;;;15.30;96.97
3250;BME280;1637;42.020;23.992;2023-06-19T04:07:40;92949.81;;;15.71;96.08
3250;BME280;1637;42.020;23.992;2023-06-19T04:10:08;92953.41;;;15.81;95.62
3250;BME280;1637;42.020;23.992;2023-06-19T04:12:36;92953.03;;;16.33;93.44
3250;BME280;1637;42.020;23.992;2023-06-19T04:15:06;92953.97;;;16.52;90.39
3250;BME280;1637;42.020;23.992;2023-06-19T04:17:33;92947.88;;;16.86;88.75
3250;BME280;1637;42.020;23.992;2023-06-19T04:19:59;92940.47;;;16.14;92.43
3250;BME280;1637;42.020;23.992;2023-06-19T04:22:26;92945.88;;;16.39;94.11
3250;BME280;1637;42.020;23.992;2023-06-19T04:24:53;92940.91;;;16.63;91.88
3250;BME280;1637;42.020;23.992;2023-06-19T04:27:20;92951.84;;;17.07;89.24
3250;BME280;1637;42.020;23.992;2023-06-19T04:29:46;92949.59;;;17.62;84.69
3250;BME280;1637;42.020;23.992;2023-06-19T04:32:15;92942.53;;;18.17;85.88
3250;BME280;1637;42.020;23.992;2023-06-19T04:34:41;92946.34;;;18.19;81.91
3250;BME280;1637;42.020;23.992;2023-06-19T04:37:11;92944.75;;;18.40;80.38
3250;BME280;1637;42.020;23.992;2023-06-19T04:39:38;92947.28;;;18.66;80.05
3250;BME280;1637;42.020;23.992;2023-06-19T04:42:06;92956.72;;;19.01;77.76
3250;BME280;1637;42.020;23.992;2023-06-19T04:44:33;92952.53;;;19.55;74.64
3250;BME280;1637;42.020;23.992;2023-06-19T04:47:00;92951.81;;;20.33;72.11
3250;BME280;1637;42.020;23.992;2023-06-19T04:49:29;92949.69;;;20.37;71.50
3250;BME280;1637;42.020;23.992;2023-06-19T04:51:56;92954.81;;;20.35;73.10
3250;BME280;1637;42.020;23.992;2023-06-19T04:54:24;92957.06;;;21.12;70.89
3250;BME280;1637;42.020;23.992;2023-06-19T04:56:51;92951.72;;;21.80;67.60
3250;BME280;1637;42.020;23.992;2023-06-19T04:59:18;92955.81;;;22.14;65.64
3250;BME280;1637;42.020;23.992;2023-06-19T05:01:46;92948.78;;;21.83;67.03
3250;BME280;1637;42.020;23.992;2023-06-19T05:04:13;92954.88;;;21.25;68.77
3250;BME280;1637;42.020;23.992;2023-06-19T05:06:41;92948.03;;;21.68;67.28
3250;BME280;1637;42.020;23.992;2023-06-19T05:09:09;92944.66;;;21.73;67.88
3250;BME280;1637;42.020;23.992;2023-06-19T05:11:36;92943.06;;;21.43;68.80
3250;BME280;1637;42.020;23.992;2023-06-19T05:14:03;92945.09;;;22.10;66.08
3250;BME280;1637;42.020;23.992;2023-06-19T05:16:29;92942.38;;;22.75;63.13
3250;BME280;1637;42.020;23.992;2023-06-19T05:18:56;92944.66;;;22.61;63.48
3250;BME280;1637;42.020;23.992;2023-06-19T05:21:23;92940.13;;;22.73;63.82
3250;BME280;1637;42.020;23.992;2023-06-19T05:23:51;92936.59;;;23.02;62.88
3250;BME280;1637;42.020;23.992;2023-06-19T05:26:18;92948.06;;;22.56;65.64
3250;BME280;1637;42.020;23.992;2023-06-19T05:28:45;92939.72;;;22.95;63.60
3250;BME280;1637;42.020;23.992;2023-06-19T05:31:12;92945.22;;;22.66;65.80
3250;BME280;1637;42.020;23.992;2023-06-19T05:33:40;92920.41;;;21.60;69.50
3250;BME280;1637;42.020;23.992;2023-06-19T05:36:07;92932.25;;;21.34;70.66
3250;BME280;1637;42.020;23.992;2023-06-19T05:38:33;92931.72;;;21.20;72.93
3250;BME280;1637;42.020;23.992;2023-06-19T05:41:01;92940.78;;;21.26;73.33
3250;BME280;1637;42.020;23.992;2023-06-19T05:43:28;92944.16;;;21.60;70.80
3250;BME280;1637;42.020;23.992;2023-06-19T05:45:56;92937.53;;;21.90;70.39
3250;BME280;1637;42.020;23.992;2023-06-19T05:48:24;92947.72;;;22.19;69.40
3250;BME280;1637;42.020;23.992;2023-06-19T05:50:51;92935.34;;;23.03;67.32
3250;BME280;1637;42.020;23.992;2023-06-19T05:53:18;92958.75;;;23.45;66.13
3250;BME280;1637;42.020;23.992;2023-06-19T05:55:45;92948.13;;;23.73;64.78
3250;BME280;1637;42.020;23.992;2023-06-19T05:58:13;92948.00;;;24.08;63.56
3250;BME280;1637;42.020;23.992;2023-06-19T06:00:40;92950.44;;;24.57;62.16
3250;BME280;1637;42.020;23.992;2023-06-19T06:03:07;92944.94;;;23.54;65.21
3250;BME280;1637;42.020;23.992;2023-06-19T06:05:34;92948.69;;;23.77;64.85
3250;BME280;1637;42.020;23.992;2023-06-19T06:08:02;92951.69;;;24.25;62.72
3250;BME280;1637;42.020;23.992;2023-06-19T06:10:28;92952.31;;;24.40;62.28
3250;BME280;1637;42.020;23.992;2023-06-19T06:12:56;92948.66;;;25.23;60.48
3250;BME280;1637;42.020;23.992;2023-06-19T06:15:24;92951.38;;;25.65;59.26
3250;BME280;1637;42.020;23.992;2023-06-19T06:17:51;92961.22;;;24.98;61.04
3250;BME280;1637;42.020;23.992;2023-06-19T06:20:17;92957.38;;;25.21;60.83
3250;BME280;1637;42.020;23.992;2023-06-19T06:22:44;92954.63;;;24.84;61.79
3250;BME280;1637;42.020;23.992;2023-06-19T06:25:11;92946.94;;;25.25;62.56
3250;BME280;1637;42.020;23.992;2023-06-19T06:27:38;92924.84;;;25.57;59.68
3250;BME280;1637;42.020;23.992;2023-06-19T06:30:06;92964.47;;;26.15;58.40
3250;BME280;1637;42.020;23.992;2023-06-19T06:32:34;92958.81;;;26.52;57.93
3250;BME280;1637;42.020;23.992;2023-06-19T06:35:01;92957.16;;;25.84;59.01
3250;BME280;1637;42.020;23.992;2023-06-19T06:37:28;92954.81;;;26.70;56.78
3250;BME280;1637;42.020;23.992;2023-06-19T06:39:54;92963.75;;;27.26;55.30
3250;BME280;1637;42.020;23.992;2023-06-19T06:42:21;92965.44;;;27.57;54.50
3250;BME280;1637;42.020;23.992;2023-06-19T06:44:48;92957.53;;;26.92;57.97
3250;BME280;1637;42.020;23.992;2023-06-19T06:47:15;92959.50;;;26.25;59.61
3250;BME280;1637;42.020;23.992;2023-06-19T06:49:43;92894.84;;;26.68;54.14
3250;BME280;1637;42.020;23.992;2023-06-19T06:52:10;92964.69;;;27.46;52.58
3250;BME280;1637;42.020;23.992;2023-06-19T06:54:37;92953.81;;;26.79;55.25
3250;BME280;1637;42.020;23.992;2023-06-19T06:57:04;92971.75;;;27.30;51.75
3250;BME280;1637;42.020;23.992;2023-06-19T06:59:31;92949.53;;;27.86;51.26
3250;BME280;1637;42.020;23.992;2023-06-19T07:01:58;92965.78;;;26.92;54.34
3250;BME280;1637;42.020;23.992;2023-06-19T07:04:24;92960.28;;;27.09;53.72
3250;BME280;1637;42.020;23.992;2023-06-19T07:06:53;92957.16;;;27.52;53.24
3250;BME280;1637;42.020;23.992;2023-06-19T07:09:20;92957.53;;;26.92;54.05
3250;BME280;1637;42.020;23.992;2023-06-19T07:11:47;92938.06;;;26.79;55.64
3250;BME280;1637;42.020;23.992;2023-06-19T07:14:14;92963.69;;;27.49;53.52
3250;BME280;1637;42.020;23.992;2023-06-19T07:16:43;92969.22;;;27.37;53.99
3250;BME280;1637;42.020;23.992;2023-06-19T07:19:10;92936.94;;;27.44;53.14
3250;BME280;1637;42.020;23.992;2023-06-19T07:21:37;92957.59;;;27.78;51.01
3250;BME280;1637;42.020;23.992;2023-06-19T07:24:06;92941.38;;;27.69;51.65
3250;BME280;1637;42.020;23.992;2023-06-19T07:26:33;92955.66;;;27.51;49.79
3250;BME280;1637;42.020;23.992;2023-06-19T07:29:00;92961.53;;;26.91;50.79
3250;BME280;1637;42.020;23.992;2023-06-19T07:31:27;92946.31;;;26.74;49.39
3250;BME280;1637;42.020;23.992;2023-06-19T07:33:54;92959.28;;;27.18;50.26
3250;BME280;1637;42.020;23.992;2023-06-19T07:36:21;92968.94;;;27.47;47.86
3250;BME280;1637;42.020;23.992;2023-06-19T07:38:47;92960.91;;;27.54;47.81
3250;BME280;1637;42.020;23.992;2023-06-19T07:41:16;92978.44;;;27.46;46.15
3250;BME280;1637;42.020;23.992;2023-06-19T07:43:43;92964.50;;;27.27;50.11
3250;BME280;1637;42.020;23.992;2023-06-19T07:46:10;92975.19;;;28.22;46.52
3250;BME280;1637;42.020;23.992;2023-06-19T07:48:36;92972.56;;;28.41;49.21
3250;BME280;1637;42.020;23.992;2023-06-19T07:51:03;92975.69;;;27.46;50.73
3250;BME280;1637;42.020;23.992;2023-06-19T07:53:30;92973.25;;;27.25;48.93
3250;BME280;1637;42.020;23.992;2023-06-19T07:55:57;92969.41;;;28.61;48.60
3250;BME280;1637;42.020;23.992;2023-06-19T07:58:25;92982.22;;;29.18;47.98
3250;BME280;1637;42.020;23.992;2023-06-19T08:00:52;92970.22;;;25.47;51.74
3250;BME280;1637;42.020;23.992;2023-06-19T08:03:19;92956.84;;;25.65;53.53
3250;BME280;1637;42.020;23.992;2023-06-19T08:05:46;92953.47;;;26.10;51.66
3250;BME280;1637;42.020;23.992;2023-06-19T08:08:13;92960.56;;;26.55;50.10
3250;BME280;1637;42.020;23.992;2023-06-19T08:10:40;92958.88;;;27.71;47.11
3250;BME280;1637;42.020;23.992;2023-06-19T08:13:07;92957.75;;;28.44;45.77
3250;BME280;1637;42.020;23.992;2023-06-19T08:15:38;92949.97;;;28.78;44.69
3250;BME280;1637;42.020;23.992;2023-06-19T08:18:04;92958.44;;;28.09;46.45
3250;BME280;1637;42.020;23.992;2023-06-19T08:20:31;92959.63;;;28.60;46.48
3250;BME280;1637;42.020;23.992;2023-06-19T08:22:58;92953.56;;;26.49;49.10
3250;BME280;1637;42.020;23.992;2023-06-19T08:25:25;92954.78;;;27.89;45.61
3250;BME280;1637;42.020;23.992;2023-06-19T08:27:51;92953.75;;;27.98;48.44
3250;BME280;1637;42.020;23.992;2023-06-19T08:30:18;92963.53;;;28.76;45.81
3250;BME280;1637;42.020;23.992;2023-06-19T08:32:47;92959.66;;;29.20;45.19
3250;BME280;1637;42.020;23.992;2023-06-19T08:35:14;92961.88;;;29.51;43.34
3250;BME280;1637;42.020;23.992;2023-06-19T08:37:41;92959.97;;;29.11;42.42
3250;BME280;1637;42.020;23.992;2023-06-19T08:40:09;92953.28;;;28.70;43.80
3250;BME280;1637;42.020;23.992;2023-06-19T08:42:36;92928.00;;;27.26;47.37
3250;BME280;1637;42.020;23.992;2023-06-19T08:45:06;92952.84;;;27.79;45.17
3250;BME280;1637;42.020;23.992;2023-06-19T08:47:33;92958.28;;;27.21;44.47
3250;BME280;1637;42.020;23.992;2023-06-19T08:50:01;92964.44;;;27.49;44.74
3250;BME280;1637;42.020;23.992;2023-06-19T08:52:29;92957.06;;;26.72;45.32
3250;BME280;1637;42.020;23.992;2023-06-19T08:54:56;92958.81;;;26.97;45.68
3250;BME280;1637;42.020;23.992;2023-06-19T08:57:33;92957.31;;;26.96;46.06
3250;BME280;1637;42.020;23.992;2023-06-19T08:59:59;92962.56;;;26.99;45.76
3250;BME280;1637;42.020;23.992;2023-06-19T09:02:36;92962.28;;;27.03;45.63
3250;BME280;1637;42.020;23.992;2023-06-19T09:05:11;92952.03;;;26.87;45.34
3250;BME280;1637;42.020;23.992;2023-06-19T09:07:38;92949.06;;;26.74;44.87
3250;BME280;1637;42.020;23.992;2023-06-19T09:10:13;92947.81;;;26.75;45.78
3250;BME280;1637;42.020;23.992;2023-06-19T09:12:41;92952.78;;;26.43;46.13
3250;BME280;1637;42.020;23.992;2023-06-19T09:15:12;92954.78;;;26.31;46.99
3250;BME280;1637;42.020;23.992;2023-06-19T09:17:39;92953.31;;;26.97;45.68
3250;BME280;1637;42.020;23.992;2023-06-19T09:20:07;92957.63;;;27.67;43.99
3250;BME280;1637;42.020;23.992;2023-06-19T09:22:35;92966.72;;;27.40;46.95
3250;BME280;1637;42.020;23.992;2023-06-19T09:25:02;92959.66;;;27.55;45.77
3250;BME280;1637;42.020;23.992;2023-06-19T09:27:32;92951.03;;;27.07;47.12
3250;BME280;1637;42.020;23.992;2023-06-19T09:30:00;92947.28;;;26.82;49.28
3250;BME280;1637;42.020;23.992;2023-06-19T09:32:28;92952.16;;;27.50;48.17
3250;BME280;1637;42.020;23.992;2023-06-19T09:34:56;92949.28;;;27.15;47.16
3250;BME280;1637;42.020;23.992;2023-06-19T09:37:26;92946.81;;;26.39;48.78
3250;BME280;1637;42.020;23.992;2023-06-19T09:39:56;92940.78;;;26.29;48.57
3250;BME280;1637;42.020;23.992;2023-06-19T09:42:26;92946.00;;;26.16;49.16
3250;BME280;1637;42.020;23.992;2023-06-19T09:44:55;92941.31;;;26.72;50.40
3250;BME280;1637;42.020;23.992;2023-06-19T09:47:25;92936.31;;;26.48;50.29
3250;BME280;1637;42.020;23.992;2023-06-19T09:49:56;92937.78;;;26.83;50.05
3250;BME280;1637;42.020;23.992;2023-06-19T09:52:23;92934.53;;;26.84;48.62
3250;BME280;1637;42.020;23.992;2023-06-19T09:54:51;92936.03;;;26.91;50.07
3250;BME280;1637;42.020;23.992;2023-06-19T09:57:20;92934.53;;;27.12;50.19
3250;BME280;1637;42.020;23.992;2023-06-19T09:59:49;92946.28;;;27.07;49.64
3250;BME280;1637;42.020;23.992;2023-06-19T10:02:19;92947.53;;;27.17;48.65
3250;BME280;1637;42.020;23.992;2023-06-19T10:04:52;92932.31;;;26.72;48.77
3250;BME280;1637;42.020;23.992;2023-06-19T10:07:21;92931.28;;;27.14;47.99
3250;BME280;1637;42.020;23.992;2023-06-19T10:09:59;92935.84;;;26.55;48.83
3250;BME280;1637;42.020;23.992;2023-06-19T10:12:41;92928.56;;;26.30;48.98
3250;BME280;1637;42.020;23.992;2023-06-19T10:15:12;92926.84;;;26.49;47.88
3250;BME280;1637;42.020;23.992;2023-06-19T10:17:47;92930.31;;;26.44;48.29
3250;BME280;1637;42.020;23.992;2023-06-19T10:20:28;92937.03;;;26.88;49.41
3250;BME280;1637;42.020;23.992;2023-06-19T10:22:59;92938.00;;;27.24;48.95
3250;BME280;1637;42.020;23.992;2023-06-19T10:25:29;92927.16;;;27.54;48.88
3250;BME280;1637;42.020;23.992;2023-06-19T10:27:58;92933.03;;;27.17;47.63
3250;BME280;1637;42.020;23.992;2023-06-19T10:30:26;92928.22;;;27.40;48.07
3250;BME280;1637;42.020;23.992;2023-06-19T10:32:53;92927.72;;;27.35;46.66
3250;BME280;1637;42.020;23.992;2023-06-19T10:35:19;92913.41;;;27.48;45.86
3250;BME280;1637;42.020;23.992;2023-06-19T10:37:49;92924.38;;;27.65;45.18
3250;BME280;1637;42.020;23.992;2023-06-19T10:40:16;92926.31;;;27.81;47.19
3250;BME280;1637;42.020;23.992;2023-06-19T10:42:43;92911.56;;;27.79;46.68
3250;BME280;1637;42.020;23.992;2023-06-19T10:45:13;92906.91;;;27.51;47.51
3250;BME280;1637;42.020;23.992;2023-06-19T10:47:42;92920.78;;;27.12;46.33
3250;BME280;1637;42.020;23.992;2023-06-19T10:50:10;92927.06;;;26.79;47.16
3250;BME280;1637;42.020;23.992;2023-06-19T10:52:40;92921.03;;;27.03;47.13
3250;BME280;1637;42.020;23.992;2023-06-19T10:55:08;92918.06;;;26.84;46.40
3250;BME280;1637;42.020;23.992;2023-06-19T10:57:36;92910.28;;;27.05;46.51
3250;BME280;1637;42.020;23.992;2023-06-19T11:00:03;92914.09;;;26.80;48.45
3250;BME280;1637;42.020;23.992;2023-06-19T11:02:38;92915.31;;;26.90;47.90
3250;BME280;1637;42.020;23.992;2023-06-19T11:05:09;92904.47;;;27.31;48.06
3250;BME280;1637;42.020;23.992;2023-06-19T11:07:36;92896.53;;;27.22;47.96
3250;BME280;1637;42.020;23.992;2023-06-19T11:10:04;92907.34;;;26.81;49.09
3250;BME280;1637;42.020;23.992;2023-06-19T11:12:31;92909.00;;;27.23;48.89
3250;BME280;1637;42.020;23.992;2023-06-19T11:15:02;92917.59;;;26.75;47.28
3250;BME280;1637;42.020;23.992;2023-06-19T11:17:29;92913.81;;;26.22;49.65
3250;BME280;1637;42.020;23.992;2023-06-19T11:19:58;92910.28;;;25.88;50.26
3250;BME280;1637;42.020;23.992;2023-06-19T11:22:36;92907.03;;;25.95;50.89
3250;BME280;1637;42.020;23.992;2023-06-19T11:25:03;92910.56;;;26.12;49.68
3250;BME280;1637;42.020;23.992;2023-06-19T11:27:31;92909.59;;;26.49;50.35
3250;BME280;1637;42.020;23.992;2023-06-19T11:29:58;92910.56;;;26.85;48.62
3250;BME280;1637;42.020;23.992;2023-06-19T11:32:30;92904.78;;;27.05;47.12
3250;BME280;1637;42.020;23.992;2023-06-19T11:35:04;92902.78;;;27.22;48.28
3250;BME280;1637;42.020;23.992;2023-06-19T11:37:33;92902.97;;;27.35;47.51
3250;BME280;1637;42.020;23.992;2023-06-19T11:40:00;92899.31;;;26.94;47.47
3250;BME280;1637;42.020;23.992;2023-06-19T11:42:28;92913.06;;;26.88;50.36
3250;BME280;1637;42.020;23.992;2023-06-19T11:44:56;92900.09;;;26.72;48.45
3250;BME280;1637;42.020;23.992;2023-06-19T11:47:24;92905.56;;;26.83;49.67
3250;BME280;1637;42.020;23.992;2023-06-19T11:49:51;92901.13;;;26.35;49.65
3250;BME280;1637;42.020;23.992;2023-06-19T11:52:19;92896.81;;;26.01;50.31
3250;BME280;1637;42.020;23.992;2023-06-19T11:54:46;92898.28;;;25.74;51.63
3250;BME280;1637;42.020;23.992;2023-06-19T11:57:13;92886.28;;;25.66;51.60
3250;BME280;1637;42.020;23.992;2023-06-19T11:59:40;92888.47;;;25.62;52.30
3250;BME280;1637;42.020;23.992;2023-06-19T12:02:08;92878.56;;;25.81;51.15
3250;BME280;1637;42.020;23.992;2023-06-19T12:04:35;92880.59;;;25.97;51.71
3250;BME280;1637;42.020;23.992;2023-06-19T12:07:02;92869.00;;;25.49;51.94
3250;BME280;1637;42.020;23.992;2023-06-19T12:09:31;92877.72;;;25.58;50.94
3250;BME280;1637;42.020;23.992;2023-06-19T12:11:58;92870.97;;;25.43;51.70
3250;BME280;1637;42.020;23.992;2023-06-19T12:14:25;92874.00;;;25.61;52.51
3250;BME280;1637;42.020;23.992;2023-06-19T12:16:52;92868.13;;;26.24;51.40
3250;BME280;1637;42.020;23.992;2023-06-19T12:19:19;92866.88;;;25.97;50.59
3250;BME280;1637;42.020;23.992;2023-06-19T12:21:46;92861.13;;;26.07;51.09
3250;BME280;1637;42.020;23.992;2023-06-19T12:24:13;92870.38;;;26.26;50.79
3250;BME280;1637;42.020;23.992;2023-06-19T12:26:41;92866.88;;;26.20;50.72
3250;BME280;1637;42.020;23.992;2023-06-19T12:29:08;92859.88;;;25.85;50.80
3250;BME280;1637;42.020;23.992;2023-06-19T12:31:35;92855.91;;;25.97;50.44
3250;BME280;1637;42.020;23.992;2023-06-19T12:34:03;92864.38;;;26.22;50.80
3250;BME280;1637;42.020;23.992;2023-06-19T12:36:30;92867.41;;;26.18;49.96
3250;BME280;1637;42.020;23.992;2023-06-19T12:38:58;92865.88;;;26.06;48.70
3250;BME280;1637;42.020;23.992;2023-06-19T12:41:25;92873.88;;;26.26;49.94
3250;BME280;1637;42.020;23.992;2023-06-19T12:43:54;92875.13;;;26.42;49.76
3250;BME280;1637;42.020;23.992;2023-06-19T12:46:21;92862.16;;;26.31;48.22
3250;BME280;1637;42.020;23.992;2023-06-19T12:48:48;92874.66;;;26.38;49.20
3250;BME280;1637;42.020;23.992;2023-06-19T12:51:16;92875.16;;;26.37;49.20
3250;BME280;1637;42.020;23.992;2023-06-19T12:53:44;92872.16;;;26.34;48.51
3250;BME280;1637;42.020;23.992;2023-06-19T12:56:11;92869.63;;;26.42;48.69
3250;BME280;1637;42.020;23.992;2023-06-19T12:58:37;92870.13;;;26.41;49.00
3250;BME280;1637;42.020;23.992;2023-06-19T13:01:06;92862.13;;;26.20;49.01
3250;BME280;1637;42.020;23.992;2023-06-19T13:03:32;92853.38;;;25.99;48.87
3250;BME280;1637;42.020;23.992;2023-06-19T13:05:59;92857.88;;;25.91;49.97
3250;BME280;1637;42.020;23.992;2023-06-19T13:08:26;92856.66;;;26.15;49.20
3250;BME280;1637;42.020;23.992;2023-06-19T13:10:53;92860.19;;;26.38;48.71